createdAt,value
2019-02-05T00:00:55.576Z,0
2019-02-05T00:01:55.503Z,0
2019-02-05T00:02:55.514Z,0
2019-02-05T00:03:55.518Z,0
2019-02-05T00:04:55.584Z,0
2019-02-05T00:05:55.593Z,0
2019-02-05T00:06:55.546Z,0
2019-02-05T00:07:55.525Z,0
2019-02-05T00:08:55.588Z,0
2019-02-05T00:09:55.620Z,0
2019-02-05T00:10:55.488Z,0
2019-02-05T00:11:55.592Z,0
2019-02-05T00:12:55.578Z,0
2019-02-05T00:13:55.596Z,0
2019-02-05T00:15:55.599Z,0
2019-02-05T00:16:55.531Z,0
2019-02-05T00:17:55.604Z,0
2019-02-05T00:18:55.532Z,0
2019-02-05T00:19:55.539Z,0
2019-02-05T00:20:55.605Z,0
2019-02-05T00:21:55.529Z,0
2019-02-05T00:22:55.609Z,0
2019-02-05T00:23:55.602Z,0
2019-02-05T00:24:55.532Z,0
2019-02-05T00:26:05.674Z,0
2019-02-05T00:26:55.609Z,0
2019-02-05T00:27:55.692Z,0
2019-02-05T00:28:55.535Z,0
2019-02-05T00:29:55.609Z,0
2019-02-05T00:30:55.555Z,0
2019-02-05T00:31:55.625Z,0
2019-02-05T00:32:55.539Z,0
2019-02-05T00:33:55.541Z,0
2019-02-05T00:34:55.537Z,0
2019-02-05T00:35:55.612Z,0
2019-02-05T00:36:55.612Z,0
2019-02-05T00:37:55.538Z,0
2019-02-05T00:38:55.579Z,0
2019-02-05T00:39:55.542Z,0
2019-02-05T00:40:55.558Z,0
2019-02-05T00:41:55.612Z,0
2019-02-05T00:42:55.619Z,0
2019-02-05T00:43:55.547Z,0
2019-02-05T00:44:55.618Z,0
2019-02-05T00:45:55.548Z,0
2019-02-05T00:46:55.550Z,0
2019-02-05T00:47:55.625Z,0
2019-02-05T00:48:55.568Z,0
2019-02-05T00:49:55.620Z,0
2019-02-05T00:50:55.639Z,0
2019-02-05T00:51:55.563Z,0
2019-02-05T00:52:55.608Z,0
2019-02-05T00:53:55.565Z,0
2019-02-05T00:54:55.480Z,0
2019-02-05T00:55:55.501Z,0
2019-02-05T00:56:55.527Z,0
2019-02-05T00:57:55.486Z,0
2019-02-05T00:58:55.544Z,0
2019-02-05T00:59:55.490Z,0
2019-02-05T01:00:55.507Z,0
2019-02-05T01:01:55.602Z,0
2019-02-05T01:02:55.482Z,0
2019-02-05T01:03:55.560Z,0
2019-02-05T01:04:55.630Z,0
2019-02-05T01:05:55.566Z,0
2019-02-05T01:06:55.639Z,0
2019-02-05T01:07:55.560Z,0
2019-02-05T01:08:55.603Z,0
2019-02-05T01:09:55.641Z,0
2019-02-05T01:10:55.563Z,0
2019-02-05T01:11:55.569Z,0
2019-02-05T01:12:55.523Z,0
2019-02-05T01:13:55.618Z,0
2019-02-05T01:14:55.553Z,0
2019-02-05T01:15:55.571Z,0
2019-02-05T01:16:55.500Z,0
2019-02-05T01:17:55.506Z,0
2019-02-05T01:18:55.508Z,0
2019-02-05T01:19:55.557Z,0
2019-02-05T01:20:55.616Z,0
2019-02-05T01:21:55.630Z,0
2019-02-05T01:22:55.595Z,0
2019-02-05T01:23:55.576Z,0
2019-02-05T01:24:55.525Z,0
2019-02-05T01:25:55.563Z,0
2019-02-05T01:26:55.562Z,0
2019-02-05T01:27:55.637Z,0
2019-02-05T01:28:55.635Z,0
2019-02-05T01:29:55.563Z,0
2019-02-05T01:30:55.565Z,0
2019-02-05T01:31:55.572Z,0
2019-02-05T01:32:55.652Z,0
2019-02-05T01:33:55.521Z,0
2019-02-05T01:34:55.530Z,0
2019-02-05T01:35:55.598Z,0
2019-02-05T01:36:55.550Z,0
2019-02-05T01:37:55.520Z,0
2019-02-05T01:38:55.599Z,0
2019-02-05T01:39:55.629Z,0
2019-02-05T01:40:55.480Z,0
2019-02-05T01:41:55.575Z,0
2019-02-05T01:42:55.527Z,0
2019-02-05T01:43:55.657Z,0
2019-02-05T01:44:55.603Z,0
2019-02-05T01:45:55.667Z,0
2019-02-05T01:46:55.661Z,0
2019-02-05T01:47:55.607Z,0
2019-02-05T01:48:55.658Z,0
2019-02-05T01:49:55.616Z,0
2019-02-05T01:50:55.627Z,0
2019-02-05T01:51:55.664Z,0
2019-02-05T01:52:55.604Z,0
2019-02-05T01:53:55.660Z,0
2019-02-05T01:54:55.585Z,0
2019-02-05T01:55:55.658Z,0
2019-02-05T01:56:55.656Z,0
2019-02-05T01:57:55.765Z,0
2019-02-05T01:58:55.658Z,0
2019-02-05T01:59:55.570Z,0
2019-02-05T02:00:55.584Z,0
2019-02-05T02:01:55.661Z,0
2019-02-05T02:02:55.668Z,0
2019-02-05T02:03:55.648Z,0
2019-02-05T02:04:55.593Z,0
2019-02-05T02:05:55.637Z,0
2019-02-05T02:06:55.623Z,0
2019-02-05T02:07:55.603Z,0
2019-02-05T02:08:55.687Z,0
2019-02-05T02:09:55.625Z,0
2019-02-05T02:10:55.647Z,0
2019-02-05T02:11:55.533Z,0
2019-02-05T02:12:55.600Z,0
2019-02-05T02:13:55.670Z,0
2019-02-05T02:14:55.672Z,0
2019-02-05T02:15:55.582Z,0
2019-02-05T02:16:55.672Z,0
2019-02-05T02:17:55.670Z,0
2019-02-05T02:18:55.609Z,0
2019-02-05T02:19:55.615Z,0
2019-02-05T02:20:55.583Z,0
2019-02-05T02:21:55.603Z,0
2019-02-05T02:22:55.552Z,0
2019-02-05T02:23:55.614Z,0
2019-02-05T02:24:55.616Z,0
2019-02-05T02:25:55.690Z,0
2019-02-05T02:26:55.631Z,0
2019-02-05T02:27:55.725Z,0
2019-02-05T02:28:55.629Z,0
2019-02-05T02:29:55.788Z,0
2019-02-05T02:30:55.621Z,0
2019-02-05T02:31:55.679Z,0
2019-02-05T02:32:55.621Z,0
2019-02-05T02:33:55.684Z,0
2019-02-05T02:34:55.693Z,0
2019-02-05T02:35:55.696Z,0
2019-02-05T02:36:55.684Z,0
2019-02-05T02:37:55.598Z,0
2019-02-05T02:38:55.685Z,0
2019-02-05T02:39:55.618Z,0
2019-02-05T02:40:55.630Z,0
2019-02-05T02:41:55.600Z,0
2019-02-05T02:42:55.698Z,0
2019-02-05T02:43:55.519Z,0
2019-02-05T02:44:55.576Z,0
2019-02-05T02:45:55.620Z,0
2019-02-05T02:46:55.664Z,0
2019-02-05T02:47:55.628Z,0
2019-02-05T02:48:55.645Z,0
2019-02-05T02:49:55.645Z,0
2019-02-05T02:50:55.571Z,0
2019-02-05T02:51:55.578Z,0
2019-02-05T02:52:55.581Z,0
2019-02-05T02:53:55.713Z,0
2019-02-05T02:54:55.636Z,0
2019-02-05T02:55:55.637Z,0
2019-02-05T02:57:04.600Z,0
2019-02-05T02:57:55.665Z,0
2019-02-05T02:58:55.644Z,0
2019-02-05T02:59:55.751Z,0
2019-02-05T03:00:55.691Z,0
2019-02-05T03:01:55.675Z,0
2019-02-05T03:02:55.655Z,0
2019-02-05T03:03:55.708Z,0
2019-02-05T03:04:55.636Z,0
2019-02-05T03:05:55.682Z,0
2019-02-05T03:06:55.709Z,0
2019-02-05T03:07:55.631Z,0
2019-02-05T03:08:55.715Z,0
2019-02-05T03:09:55.642Z,0
2019-02-05T03:10:55.714Z,0
2019-02-05T03:11:55.710Z,0
2019-02-05T03:12:55.637Z,0
2019-02-05T03:13:55.650Z,0
2019-02-05T03:14:55.724Z,0
2019-02-05T03:15:55.650Z,0
2019-02-05T03:16:55.724Z,0
2019-02-05T03:17:55.724Z,0
2019-02-05T03:18:55.736Z,0
2019-02-05T03:19:55.654Z,0
2019-02-05T03:20:55.722Z,0
2019-02-05T03:21:55.699Z,0
2019-02-05T03:22:55.735Z,0
2019-02-05T03:23:55.642Z,0
2019-02-05T03:24:55.718Z,0
2019-02-05T03:25:55.732Z,0
2019-02-05T03:26:55.650Z,0
2019-02-05T03:27:55.722Z,0
2019-02-05T03:28:55.654Z,0
2019-02-05T03:29:55.648Z,0
2019-02-05T03:30:55.734Z,0
2019-02-05T03:31:55.662Z,0
2019-02-05T03:32:55.790Z,0
2019-02-05T03:33:55.727Z,0
2019-02-05T03:34:55.697Z,0
2019-02-05T03:35:55.628Z,0
2019-02-05T03:36:55.671Z,0
2019-02-05T03:37:55.725Z,0
2019-02-05T03:38:55.681Z,0
2019-02-05T03:39:55.604Z,0
2019-02-05T03:40:55.769Z,0
2019-02-05T03:41:55.634Z,0
2019-02-05T03:42:55.639Z,0
2019-02-05T03:43:55.669Z,0
2019-02-05T03:44:55.777Z,0
2019-02-05T03:45:55.736Z,0
2019-02-05T03:46:55.664Z,0
2019-02-05T03:47:55.736Z,0
2019-02-05T03:48:55.673Z,0
2019-02-05T03:49:55.743Z,0
2019-02-05T03:50:55.659Z,0
2019-02-05T03:51:55.669Z,0
2019-02-05T03:52:55.737Z,0
2019-02-05T03:53:55.621Z,0
2019-02-05T03:54:55.652Z,0
2019-02-05T03:55:55.679Z,0
2019-02-05T03:56:55.750Z,0
2019-02-05T03:57:55.725Z,0
2019-02-05T03:58:55.689Z,0
2019-02-05T03:59:55.733Z,0
2019-02-05T04:00:55.683Z,0
2019-02-05T04:01:55.670Z,0
2019-02-05T04:02:55.729Z,0
2019-02-05T04:03:55.757Z,0
2019-02-05T04:04:55.760Z,0
2019-02-05T04:05:55.687Z,0
2019-02-05T04:06:55.784Z,0
2019-02-05T04:07:55.760Z,0
2019-02-05T04:08:55.692Z,0
2019-02-05T04:09:55.820Z,0
2019-02-05T04:10:55.688Z,0
2019-02-05T04:11:55.785Z,0
2019-02-05T04:12:55.768Z,0
2019-02-05T04:13:55.773Z,0
2019-02-05T04:14:55.782Z,0
2019-02-05T04:15:55.700Z,0
2019-02-05T04:16:55.692Z,0
2019-02-05T04:17:55.770Z,0
2019-02-05T04:18:55.697Z,0
2019-02-05T04:19:55.713Z,0
2019-02-05T04:20:55.771Z,0
2019-02-05T04:21:55.768Z,0
2019-02-05T04:22:55.703Z,0
2019-02-05T04:23:55.771Z,0
2019-02-05T04:24:55.704Z,0
2019-02-05T04:25:55.771Z,0
2019-02-05T04:26:55.700Z,0
2019-02-05T04:27:55.776Z,0
2019-02-05T04:28:55.774Z,0
2019-02-05T04:29:55.786Z,0
2019-02-05T04:30:55.703Z,0
2019-02-05T04:31:55.776Z,0
2019-02-05T04:32:55.774Z,0
2019-02-05T04:33:55.677Z,0
2019-02-05T04:34:55.854Z,0
2019-02-05T04:35:55.751Z,0
2019-02-05T04:36:57.569Z,0
2019-02-05T04:37:55.674Z,0
2019-02-05T04:38:55.739Z,0
2019-02-05T04:39:55.779Z,0
2019-02-05T04:40:55.696Z,0
2019-02-05T04:41:55.644Z,0
2019-02-05T04:42:55.774Z,0
2019-02-05T04:43:55.809Z,0
2019-02-05T04:44:55.789Z,0
2019-02-05T04:45:55.713Z,0
2019-02-05T04:46:55.787Z,0
2019-02-05T04:47:55.718Z,0
2019-02-05T04:48:55.789Z,0
2019-02-05T04:50:55.788Z,0
2019-02-05T04:51:55.791Z,0
2019-02-05T04:52:55.803Z,0
2019-02-05T04:53:55.739Z,0
2019-02-05T04:54:55.739Z,0
2019-02-05T04:55:55.709Z,0
2019-02-05T04:56:55.707Z,0
2019-02-05T04:57:59.152Z,0
2019-02-05T04:58:55.712Z,0
2019-02-05T04:59:55.685Z,0
2019-02-05T05:00:55.752Z,0
2019-02-05T05:01:55.757Z,0
2019-02-05T05:02:55.699Z,0
2019-02-05T05:03:55.852Z,0
2019-02-05T05:04:55.726Z,0
2019-02-05T05:05:55.745Z,0
2019-02-05T05:06:55.801Z,0
2019-02-05T05:07:55.730Z,0
2019-02-05T05:08:55.807Z,0
2019-02-05T05:09:55.730Z,0
2019-02-05T05:10:55.796Z,0
2019-02-05T05:11:55.732Z,0
2019-02-05T05:12:55.808Z,0
2019-02-05T05:13:55.747Z,0
2019-02-05T05:14:55.736Z,0
2019-02-05T05:15:55.738Z,0
2019-02-05T05:16:55.813Z,0
2019-02-05T05:17:55.766Z,0
2019-02-05T05:18:55.736Z,0
2019-02-05T05:19:55.703Z,0
2019-02-05T05:20:55.797Z,0
2019-02-05T05:21:55.748Z,0
2019-02-05T05:22:55.819Z,0
2019-02-05T05:23:55.708Z,0
2019-02-05T05:24:55.702Z,0
2019-02-05T05:25:55.775Z,0
2019-02-05T05:26:55.806Z,0
2019-02-05T05:27:55.790Z,0
2019-02-05T05:28:55.802Z,0
2019-02-05T05:29:55.816Z,0
2019-02-05T05:30:55.725Z,0
2019-02-05T05:31:55.759Z,0
2019-02-05T05:32:55.719Z,0
2019-02-05T05:33:55.743Z,0
2019-02-05T05:34:55.810Z,0
2019-02-05T05:35:55.745Z,0
2019-02-05T05:36:55.871Z,0
2019-02-05T05:37:55.812Z,0
2019-02-05T05:38:55.739Z,0
2019-02-05T05:39:55.814Z,0
2019-02-05T05:40:55.743Z,0
2019-02-05T05:41:55.896Z,0
2019-02-05T05:42:55.743Z,0
2019-02-05T05:43:55.828Z,0
2019-02-05T05:44:55.831Z,0
2019-02-05T05:45:55.761Z,0
2019-02-05T05:46:55.795Z,0
2019-02-05T05:47:55.834Z,0
2019-02-05T05:48:55.761Z,0
2019-02-05T05:49:55.839Z,0
2019-02-05T05:50:55.762Z,0
2019-02-05T05:51:55.771Z,0
2019-02-05T05:52:55.762Z,0
2019-02-05T05:53:55.758Z,0
2019-02-05T05:54:55.785Z,0
2019-02-05T05:55:55.824Z,0
2019-02-05T05:56:55.763Z,0
2019-02-05T05:57:55.771Z,0
2019-02-05T05:58:55.841Z,0
2019-02-05T05:59:55.818Z,0
2019-02-05T06:00:55.734Z,0
2019-02-05T06:01:55.784Z,0
2019-02-05T06:02:55.853Z,0
2019-02-05T06:03:55.697Z,0
2019-02-05T06:04:55.805Z,0
2019-02-05T06:05:55.758Z,0
2019-02-05T06:06:55.693Z,0
2019-02-05T06:07:55.774Z,0
2019-02-05T06:08:55.694Z,0
2019-02-05T06:09:55.811Z,0
2019-02-05T06:10:55.714Z,0
2019-02-05T06:11:55.726Z,0
2019-02-05T06:12:55.770Z,0
2019-02-05T06:13:55.776Z,0
2019-02-05T06:14:55.849Z,0
2019-02-05T06:15:55.779Z,0
2019-02-05T06:16:55.779Z,0
2019-02-05T06:17:55.855Z,0
2019-02-05T06:18:55.781Z,0
2019-02-05T06:20:55.860Z,0
2019-02-05T06:21:55.854Z,0
2019-02-05T06:22:55.852Z,0
2019-02-05T06:23:55.764Z,0
2019-02-05T06:24:55.858Z,4
2019-02-05T06:25:55.858Z,4
2019-02-05T06:26:55.772Z,4
2019-02-05T06:27:55.776Z,4
2019-02-05T06:28:55.854Z,4
2019-02-05T06:29:55.771Z,4
2019-02-05T06:30:55.849Z,8
2019-02-05T06:31:55.781Z,8
2019-02-05T06:32:55.848Z,12
2019-02-05T06:33:55.872Z,12
2019-02-05T06:34:55.856Z,12
2019-02-05T06:35:55.777Z,16
2019-02-05T06:36:55.789Z,16
2019-02-05T06:37:55.777Z,16
2019-02-05T06:38:55.861Z,16
2019-02-05T06:39:55.779Z,16
2019-02-05T06:40:55.783Z,36
2019-02-05T06:41:55.858Z,40
2019-02-05T06:42:55.784Z,48
2019-02-05T06:43:55.878Z,56
2019-02-05T06:44:55.880Z,64
2019-02-05T06:45:55.871Z,76
2019-02-05T06:46:55.846Z,88
2019-02-05T06:47:55.931Z,104
2019-02-05T06:48:55.819Z,124
2019-02-05T06:49:55.806Z,144
2019-02-05T06:50:56.929Z,172
2019-02-05T06:51:55.811Z,204
2019-02-05T06:52:55.878Z,228
2019-02-05T06:53:55.742Z,244
2019-02-05T06:54:55.764Z,256
2019-02-05T06:55:55.810Z,284
2019-02-05T06:56:55.814Z,308
2019-02-05T06:57:55.861Z,316
2019-02-05T06:58:55.867Z,328
2019-02-05T06:59:55.743Z,356
2019-02-05T07:00:55.913Z,392
2019-02-05T07:01:55.924Z,404
2019-02-05T07:02:55.747Z,420
2019-02-05T07:03:55.878Z,444
2019-02-05T07:04:55.887Z,464
2019-02-05T07:05:55.875Z,456
2019-02-05T07:06:55.875Z,472
2019-02-05T07:07:55.876Z,504
2019-02-05T07:08:55.797Z,528
2019-02-05T07:09:55.887Z,544
2019-02-05T07:10:55.877Z,540
2019-02-05T07:11:55.815Z,564
2019-02-05T07:12:55.877Z,600
2019-02-05T07:13:58.153Z,628
2019-02-05T07:14:55.834Z,680
2019-02-05T07:15:55.819Z,724
2019-02-05T07:16:55.819Z,800
2019-02-05T07:17:55.897Z,900
2019-02-05T07:18:55.909Z,996
2019-02-05T07:19:55.958Z,1036
2019-02-05T07:20:55.822Z,1048
2019-02-05T07:21:55.899Z,1108
2019-02-05T07:22:55.958Z,1188
2019-02-05T07:23:55.826Z,1228
2019-02-05T07:24:55.787Z,1152
2019-02-05T07:25:55.827Z,1140
2019-02-05T07:26:55.898Z,1184
2019-02-05T07:27:55.908Z,1272
2019-02-05T07:28:58.904Z,1360
2019-02-05T07:29:55.904Z,1288
2019-02-05T07:30:55.910Z,1248
2019-02-05T07:31:55.908Z,1284
2019-02-05T07:32:55.862Z,1316
2019-02-05T07:33:55.833Z,1324
2019-02-05T07:34:55.863Z,1316
2019-02-05T07:35:55.843Z,1312
2019-02-05T07:36:55.833Z,1324
2019-02-05T07:37:55.958Z,1312
2019-02-05T07:38:55.906Z,1352
2019-02-05T07:39:55.836Z,1428
2019-02-05T07:40:55.923Z,1500
2019-02-05T07:41:55.835Z,1628
2019-02-05T07:42:55.913Z,1944
2019-02-05T07:43:55.840Z,2220
2019-02-05T07:44:55.911Z,2388
2019-02-05T07:45:55.872Z,2372
2019-02-05T07:46:55.844Z,2416
2019-02-05T07:47:55.849Z,2520
2019-02-05T07:48:55.914Z,2592
2019-02-05T07:49:55.873Z,2700
2019-02-05T07:50:55.853Z,2868
2019-02-05T07:51:55.912Z,3036
2019-02-05T07:52:55.846Z,3292
2019-02-05T07:53:55.766Z,3344
2019-02-05T07:54:55.981Z,3416
2019-02-05T07:55:55.775Z,3456
2019-02-05T07:56:55.773Z,3516
2019-02-05T07:57:55.839Z,3600
2019-02-05T07:58:55.883Z,3700
2019-02-05T07:59:55.847Z,3720
2019-02-05T08:00:55.800Z,3656
2019-02-05T08:01:55.872Z,3664
2019-02-05T08:02:55.894Z,3744
2019-02-05T08:03:55.866Z,3900
2019-02-05T08:04:55.922Z,4160
2019-02-05T08:05:55.850Z,4492
2019-02-05T08:06:56.013Z,4888
2019-02-05T08:07:55.856Z,4996
2019-02-05T08:08:55.934Z,5124
2019-02-05T08:09:55.859Z,5200
2019-02-05T08:10:55.858Z,5188
2019-02-05T08:11:55.844Z,5164
2019-02-05T08:12:55.928Z,5224
2019-02-05T08:13:55.822Z,5184
2019-02-05T08:14:55.860Z,5088
2019-02-05T08:15:55.862Z,5308
2019-02-05T08:16:55.876Z,5344
2019-02-05T08:17:55.861Z,5244
2019-02-05T08:18:55.864Z,5340
2019-02-05T08:19:55.867Z,5512
2019-02-05T08:20:55.939Z,5588
2019-02-05T08:21:55.878Z,5916
2019-02-05T08:22:56.046Z,6320
2019-02-05T08:23:55.871Z,6248
2019-02-05T08:24:55.946Z,6376
2019-02-05T08:25:55.879Z,6572
2019-02-05T08:26:55.832Z,6636
2019-02-05T08:27:55.938Z,6680
2019-02-05T08:28:55.896Z,6520
2019-02-05T08:29:56.036Z,6196
2019-02-05T08:30:55.874Z,6356
2019-02-05T08:31:55.943Z,6596
2019-02-05T08:32:55.986Z,6448
2019-02-05T08:33:55.952Z,6320
2019-02-05T08:34:55.891Z,6288
2019-02-05T08:35:55.963Z,6272
2019-02-05T08:36:55.942Z,6416
2019-02-05T08:37:55.899Z,6852
2019-02-05T08:38:55.949Z,7428
2019-02-05T08:39:55.883Z,7460
2019-02-05T08:40:55.947Z,7536
2019-02-05T08:41:55.876Z,7400
2019-02-05T08:42:55.953Z,7236
2019-02-05T08:43:55.890Z,7260
2019-02-05T08:44:55.854Z,7036
2019-02-05T08:45:56.979Z,7256
2019-02-05T08:46:55.938Z,7248
2019-02-05T08:47:55.944Z,7536
2019-02-05T08:48:55.944Z,7788
2019-02-05T08:49:55.942Z,7404
2019-02-05T08:50:55.943Z,6992
2019-02-05T08:51:55.893Z,6720
2019-02-05T08:52:55.948Z,6736
2019-02-05T08:53:55.951Z,7100
2019-02-05T08:54:55.961Z,7188
2019-02-05T08:55:55.891Z,7444
2019-02-05T08:56:55.968Z,8188
2019-02-05T08:57:55.967Z,8652
2019-02-05T08:58:55.890Z,9244
2019-02-05T08:59:55.906Z,9372
2019-02-05T09:00:55.892Z,9736
2019-02-05T09:01:55.891Z,9476
2019-02-05T09:02:55.904Z,8928
2019-02-05T09:03:55.905Z,8320
2019-02-05T09:04:55.896Z,8148
2019-02-05T09:05:55.964Z,8612
2019-02-05T09:06:55.971Z,9456
2019-02-05T09:07:55.898Z,9600
2019-02-05T09:08:55.903Z,9888
2019-02-05T09:09:55.898Z,9384
2019-02-05T09:10:55.968Z,8880
2019-02-05T09:11:56.023Z,8756
2019-02-05T09:12:55.902Z,8768
2019-02-05T09:13:55.981Z,8824
2019-02-05T09:14:55.902Z,8852
2019-02-05T09:15:55.981Z,9000
2019-02-05T09:16:55.908Z,8872
2019-02-05T09:17:55.904Z,9032
2019-02-05T09:18:55.979Z,9196
2019-02-05T09:19:55.977Z,9204
2019-02-05T09:20:55.907Z,8984
2019-02-05T09:21:55.983Z,9392
2019-02-05T09:22:55.908Z,9856
2019-02-05T09:23:55.974Z,9548
2019-02-05T09:24:55.909Z,8420
2019-02-05T09:25:55.981Z,7892
2019-02-05T09:26:55.981Z,8660
2019-02-05T09:27:55.977Z,9056
2019-02-05T09:28:55.921Z,8584
2019-02-05T09:29:55.982Z,7684
2019-02-05T09:30:55.913Z,7312
2019-02-05T09:31:55.984Z,7676
2019-02-05T09:32:55.985Z,7868
2019-02-05T09:33:55.995Z,7880
2019-02-05T09:34:55.919Z,8028
2019-02-05T09:35:56.008Z,7648
2019-02-05T09:36:55.994Z,8280
2019-02-05T09:37:57.820Z,8860
2019-02-05T09:38:55.999Z,8932
2019-02-05T09:39:55.921Z,9592
2019-02-05T09:40:55.986Z,9792
2019-02-05T09:41:55.924Z,9604
2019-02-05T09:42:55.993Z,9912
2019-02-05T09:43:55.923Z,9936
2019-02-05T09:44:55.986Z,9840
2019-02-05T09:45:56.003Z,10076
2019-02-05T09:46:55.933Z,9964
2019-02-05T09:47:55.996Z,9940
2019-02-05T09:48:55.929Z,10152
2019-02-05T09:49:56.001Z,10520
2019-02-05T09:50:55.990Z,11156
2019-02-05T09:51:55.923Z,11628
2019-02-05T09:52:55.926Z,11800
2019-02-05T09:53:56.002Z,12084
2019-02-05T09:54:55.930Z,11832
2019-02-05T09:55:56.005Z,11792
2019-02-05T09:56:55.966Z,12108
2019-02-05T09:57:55.929Z,12260
2019-02-05T09:58:56.001Z,10560
2019-02-05T10:00:56.005Z,8556
2019-02-05T10:02:56.004Z,8612
2019-02-05T10:03:55.936Z,9628
2019-02-05T10:04:55.821Z,10652
2019-02-05T10:05:55.968Z,10624
2019-02-05T10:06:55.894Z,10600
2019-02-05T10:07:55.922Z,10632
2019-02-05T10:08:55.943Z,10508
2019-02-05T10:09:55.937Z,10336
2019-02-05T10:10:55.823Z,10664
2019-02-05T10:11:55.858Z,10908
2019-02-05T10:12:55.929Z,10228
2019-02-05T10:13:56.011Z,9796
2019-02-05T10:14:55.950Z,9544
2019-02-05T10:15:55.927Z,9512
2019-02-05T10:16:55.869Z,9416
2019-02-05T10:17:55.874Z,9396
2019-02-05T10:18:55.870Z,9612
2019-02-05T10:19:55.980Z,9700
2019-02-05T10:20:55.878Z,9508
2019-02-05T10:21:55.871Z,9232
2019-02-05T10:22:55.956Z,9136
2019-02-05T10:23:55.934Z,9676
2019-02-05T10:24:55.953Z,10468
2019-02-05T10:25:56.018Z,10836
2019-02-05T10:26:55.958Z,10840
2019-02-05T10:27:56.037Z,10864
2019-02-05T10:28:55.956Z,10432
2019-02-05T10:29:59.449Z,10648
2019-02-05T10:30:55.972Z,10748
2019-02-05T10:31:55.955Z,11008
2019-02-05T10:32:56.022Z,11060
2019-02-05T10:33:56.027Z,10960
2019-02-05T10:34:56.017Z,10568
2019-02-05T10:35:56.020Z,10232
2019-02-05T10:36:55.955Z,9796
2019-02-05T10:37:55.932Z,9480
2019-02-05T10:38:55.951Z,9348
2019-02-05T10:39:56.018Z,9172
2019-02-05T10:40:56.021Z,9144
2019-02-05T10:41:55.985Z,9296
2019-02-05T10:42:56.023Z,9584
2019-02-05T10:43:56.021Z,9752
2019-02-05T10:44:56.021Z,9856
2019-02-05T10:45:55.979Z,9992
2019-02-05T10:46:56.016Z,10088
2019-02-05T10:47:55.941Z,10012
2019-02-05T10:48:55.915Z,9596
2019-02-05T10:49:55.926Z,9468
2019-02-05T10:50:56.028Z,9672
2019-02-05T10:51:55.907Z,9904
2019-02-05T10:52:55.933Z,10160
2019-02-05T10:53:56.015Z,9968
2019-02-05T10:54:55.931Z,9452
2019-02-05T10:55:55.960Z,8736
2019-02-05T10:56:55.993Z,8780
2019-02-05T10:57:56.000Z,8704
2019-02-05T10:58:55.896Z,9056
2019-02-05T10:59:55.989Z,9416
2019-02-05T11:00:55.963Z,9632
2019-02-05T11:01:55.961Z,10072
2019-02-05T11:02:55.992Z,10448
2019-02-05T11:03:55.900Z,10684
2019-02-05T11:04:56.055Z,10536
2019-02-05T11:05:55.998Z,10052
2019-02-05T11:06:55.944Z,9436
2019-02-05T11:07:55.980Z,9016
2019-02-05T11:08:55.988Z,8916
2019-02-05T11:09:56.055Z,8876
2019-02-05T11:10:56.055Z,8868
2019-02-05T11:11:55.988Z,8784
2019-02-05T11:12:55.982Z,8568
2019-02-05T11:13:56.065Z,8968
2019-02-05T11:14:55.989Z,9076
2019-02-05T11:15:55.990Z,9180
2019-02-05T11:16:56.060Z,9464
2019-02-05T11:17:56.001Z,9576
2019-02-05T11:18:56.004Z,9464
2019-02-05T11:19:56.063Z,9668
2019-02-05T11:20:56.001Z,9844
2019-02-05T11:21:56.067Z,10056
2019-02-05T11:22:56.068Z,9520
2019-02-05T11:23:55.988Z,8632
2019-02-05T11:24:55.993Z,7624
2019-02-05T11:25:56.066Z,6652
2019-02-05T11:26:56.073Z,6048
2019-02-05T11:27:55.996Z,5800
2019-02-05T11:28:55.998Z,5672
2019-02-05T11:29:55.998Z,5800
2019-02-05T11:30:56.000Z,6252
2019-02-05T11:31:56.158Z,6612
2019-02-05T11:32:56.069Z,6812
2019-02-05T11:33:56.000Z,7048
2019-02-05T11:34:55.946Z,7580
2019-02-05T11:35:56.002Z,8352
2019-02-05T11:36:56.012Z,9216
2019-02-05T11:37:56.006Z,10156
2019-02-05T11:38:55.942Z,11088
2019-02-05T11:39:55.952Z,12048
2019-02-05T11:40:56.013Z,12960
2019-02-05T11:41:56.004Z,13268
2019-02-05T11:42:56.057Z,12920
2019-02-05T11:43:56.011Z,12604
2019-02-05T11:44:55.972Z,12440
2019-02-05T11:45:56.070Z,12008
2019-02-05T11:46:55.993Z,11756
2019-02-05T11:47:56.071Z,11688
2019-02-05T11:48:56.070Z,11560
2019-02-05T11:49:56.005Z,11132
2019-02-05T11:50:55.973Z,10652
2019-02-05T11:51:56.017Z,10420
2019-02-05T11:52:56.085Z,10316
2019-02-05T11:53:56.070Z,10380
2019-02-05T11:54:55.988Z,10328
2019-02-05T11:55:55.975Z,10156
2019-02-05T11:56:55.988Z,10328
2019-02-05T11:57:56.067Z,10724
2019-02-05T11:58:56.070Z,11040
2019-02-05T11:59:56.076Z,11304
2019-02-05T12:00:55.990Z,10920
2019-02-05T12:01:56.070Z,10040
2019-02-05T12:02:56.077Z,10564
2019-02-05T12:03:56.145Z,11272
2019-02-05T12:04:56.023Z,11692
2019-02-05T12:05:56.093Z,11624
2019-02-05T12:06:56.045Z,11904
2019-02-05T12:07:56.042Z,11984
2019-02-05T12:08:56.025Z,12056
2019-02-05T12:09:56.099Z,12408
2019-02-05T12:10:56.053Z,12492
2019-02-05T12:11:56.101Z,12016
2019-02-05T12:12:56.032Z,11428
2019-02-05T12:13:56.027Z,11128
2019-02-05T12:14:55.991Z,11140
2019-02-05T12:15:56.236Z,11280
2019-02-05T12:16:55.996Z,11516
2019-02-05T12:17:55.953Z,11788
2019-02-05T12:18:55.964Z,11752
2019-02-05T12:19:55.966Z,11964
2019-02-05T12:20:56.006Z,12520
2019-02-05T12:21:56.097Z,13104
2019-02-05T12:22:56.084Z,12864
2019-02-05T12:23:56.058Z,12092
2019-02-05T12:24:56.112Z,11724
2019-02-05T12:25:56.037Z,11804
2019-02-05T12:26:56.094Z,11892
2019-02-05T12:27:56.103Z,11788
2019-02-05T12:28:56.058Z,11760
2019-02-05T12:29:56.095Z,11492
2019-02-05T12:30:56.023Z,11632
2019-02-05T12:31:56.013Z,11856
2019-02-05T12:32:55.979Z,11548
2019-02-05T12:33:56.103Z,11300
2019-02-05T12:34:56.038Z,10824
2019-02-05T12:35:56.043Z,11076
2019-02-05T12:36:56.110Z,11724
2019-02-05T12:37:56.045Z,11572
2019-02-05T12:38:56.117Z,11576
2019-02-05T12:39:56.050Z,11416
2019-02-05T12:40:56.004Z,11280
2019-02-05T12:41:56.045Z,11048
2019-02-05T12:42:56.052Z,11128
2019-02-05T12:43:56.046Z,11460
2019-02-05T12:44:56.117Z,11560
2019-02-05T12:45:56.052Z,11096
2019-02-05T12:46:56.066Z,10824
2019-02-05T12:47:56.053Z,10652
2019-02-05T12:48:56.014Z,10768
2019-02-05T12:49:56.070Z,11384
2019-02-05T12:50:56.076Z,12028
2019-02-05T12:51:56.135Z,12396
2019-02-05T12:52:56.054Z,12504
2019-02-05T12:53:56.130Z,12628
2019-02-05T12:54:55.930Z,12852
2019-02-05T12:55:55.931Z,12572
2019-02-05T12:56:56.042Z,12044
2019-02-05T12:57:56.024Z,12068
2019-02-05T12:58:56.044Z,12644
2019-02-05T12:59:56.049Z,13244
2019-02-05T13:01:01.078Z,13100
2019-02-05T13:01:55.934Z,12608
2019-02-05T13:02:56.026Z,11956
2019-02-05T13:03:56.049Z,11464
2019-02-05T13:04:56.155Z,11696
2019-02-05T13:05:56.142Z,12204
2019-02-05T13:06:56.067Z,12856
2019-02-05T13:07:56.135Z,13760
2019-02-05T13:08:56.194Z,14624
2019-02-05T13:09:56.066Z,14476
2019-02-05T13:10:56.136Z,12956
2019-02-05T13:11:56.067Z,11688
2019-02-05T13:12:56.141Z,11836
2019-02-05T13:13:56.067Z,12960
2019-02-05T13:14:56.122Z,13196
2019-02-05T13:15:56.131Z,13288
2019-02-05T13:16:56.059Z,12900
2019-02-05T13:17:56.002Z,12416
2019-02-05T13:18:56.011Z,12476
2019-02-05T13:19:56.084Z,13052
2019-02-05T13:20:56.012Z,14332
2019-02-05T13:21:56.082Z,14516
2019-02-05T13:22:56.042Z,13724
2019-02-05T13:23:56.126Z,12584
2019-02-05T13:24:56.081Z,12032
2019-02-05T13:25:56.167Z,11984
2019-02-05T13:26:56.076Z,12232
2019-02-05T13:27:56.163Z,12184
2019-02-05T13:28:56.151Z,12064
2019-02-05T13:29:56.163Z,12064
2019-02-05T13:31:07.390Z,12208
2019-02-05T13:31:56.084Z,12864
2019-02-05T13:32:56.084Z,13824
2019-02-05T13:33:56.152Z,13792
2019-02-05T13:34:56.150Z,13484
2019-02-05T13:35:56.088Z,13248
2019-02-05T13:36:56.087Z,13028
2019-02-05T13:37:56.178Z,12556
2019-02-05T13:38:56.085Z,11484
2019-02-05T13:39:56.084Z,10920
2019-02-05T13:40:56.084Z,10788
2019-02-05T13:41:56.162Z,10504
2019-02-05T13:42:56.091Z,10240
2019-02-05T13:43:56.156Z,9896
2019-02-05T13:44:56.057Z,9268
2019-02-05T13:45:56.048Z,8608
2019-02-05T13:46:56.085Z,8444
2019-02-05T13:47:56.151Z,8856
2019-02-05T13:48:56.058Z,9340
2019-02-05T13:49:56.064Z,9452
2019-02-05T13:50:56.153Z,9200
2019-02-05T13:51:56.064Z,9044
2019-02-05T13:52:56.153Z,9176
2019-02-05T13:53:56.126Z,9544
2019-02-05T13:54:56.098Z,9420
2019-02-05T13:55:56.162Z,9372
2019-02-05T13:56:56.037Z,9200
2019-02-05T13:57:56.067Z,8948
2019-02-05T13:58:56.155Z,8968